sensor_id;sensor_type;location;lat;lon;timestamp;P1;durP1;ratioP1;P2;durP2;ratioP2
66485;SDS011;53303;47.476;8.084;2024-02-26T00:02:18;6.85;;;1.58;;
66485;SDS011;53303;47.476;8.084;2024-02-26T00:04:43;6.78;;;1.30;;
66485;SDS011;53303;47.476;8.084;2024-02-26T00:07:09;5.35;;;1.52;;
66485;SDS011;53303;47.476;8.084;2024-02-26T00:09:34;5.35;;;1.17;;
66485;SDS011;53303;47.476;8.084;2024-02-26T00:12:04;4.20;;;1.15;;
66485;SDS011;53303;47.476;8.084;2024-02-26T00:14:30;7.65;;;1.20;;
66485;SDS011;53303;47.476;8.084;2024-02-26T00:16:56;4.97;;;0.95;;
66485;SDS011;53303;47.476;8.084;2024-02-26T00:19:21;6.93;;;1.23;;
66485;SDS011;53303;47.476;8.084;2024-02-26T00:21:47;6.43;;;1.17;;
66485;SDS011;53303;47.476;8.084;2024-02-26T00:24:12;8.93;;;1.65;;
66485;SDS011;53303;47.476;8.084;2024-02-26T00:26:38;6.75;;;1.23;;
66485;SDS011;53303;47.476;8.084;2024-02-26T00:29:05;4.57;;;1.25;;
66485;SDS011;53303;47.476;8.084;2024-02-26T00:31:31;6.13;;;1.30;;
66485;SDS011;53303;47.476;8.084;2024-02-26T00:33:59;4.63;;;1.15;;
66485;SDS011;53303;47.476;8.084;2024-02-26T00:36:24;5.03;;;1.42;;
66485;SDS011;53303;47.476;8.084;2024-02-26T00:38:49;6.00;;;1.20;;
66485;SDS011;53303;47.476;8.084;2024-02-26T00:41:18;7.32;;;1.40;;
66485;SDS011;53303;47.476;8.084;2024-02-26T00:43:46;6.55;;;1.30;;
66485;SDS011;53303;47.476;8.084;2024-02-26T00:46:14;4.63;;;1.10;;
66485;SDS011;53303;47.476;8.084;2024-02-26T00:48:42;7.38;;;1.00;;
66485;SDS011;53303;47.476;8.084;2024-02-26T00:51:10;4.60;;;1.13;;
66485;SDS011;53303;47.476;8.084;2024-02-26T00:53:35;4.55;;;1.00;;
66485;SDS011;53303;47.476;8.084;2024-02-26T00:56:01;5.53;;;1.23;;
66485;SDS011;53303;47.476;8.084;2024-02-26T00:58:27;5.10;;;1.35;;
66485;SDS011;53303;47.476;8.084;2024-02-26T01:00:52;6.38;;;1.40;;
66485;SDS011;53303;47.476;8.084;2024-02-26T01:03:20;4.93;;;1.30;;
66485;SDS011;53303;47.476;8.084;2024-02-26T01:05:46;4.50;;;1.10;;
66485;SDS011;53303;47.476;8.084;2024-02-26T01:08:11;5.63;;;1.42;;
66485;SDS011;53303;47.476;8.084;2024-02-26T01:10:37;7.07;;;1.30;;
66485;SDS011;53303;47.476;8.084;2024-02-26T01:13:02;5.78;;;1.10;;
66485;SDS011;53303;47.476;8.084;2024-02-26T01:15:28;4.35;;;1.08;;
66485;SDS011;53303;47.476;8.084;2024-02-26T01:17:53;5.38;;;1.20;;
66485;SDS011;53303;47.476;8.084;2024-02-26T01:20:19;5.75;;;1.25;;
66485;SDS011;53303;47.476;8.084;2024-02-26T01:22:44;4.93;;;0.80;;
66485;SDS011;53303;47.476;8.084;2024-02-26T01:25:10;4.10;;;1.05;;
66485;SDS011;53303;47.476;8.084;2024-02-26T01:27:36;5.20;;;1.45;;
66485;SDS011;53303;47.476;8.084;2024-02-26T01:30:05;5.18;;;1.20;;
66485;SDS011;53303;47.476;8.084;2024-02-26T01:32:31;4.75;;;1.33;;
66485;SDS011;53303;47.476;8.084;2024-02-26T01:34:59;3.72;;;1.13;;
66485;SDS011;53303;47.476;8.084;2024-02-26T01:37:24;2.92;;;1.00;;
66485;SDS011;53303;47.476;8.084;2024-02-26T01:39:50;4.28;;;1.10;;
66485;SDS011;53303;47.476;8.084;2024-02-26T01:42:15;4.80;;;1.10;;
66485;SDS011;53303;47.476;8.084;2024-02-26T01:44:41;4.05;;;0.73;;
66485;SDS011;53303;47.476;8.084;2024-02-26T01:47:07;5.93;;;0.88;;
66485;SDS011;53303;47.476;8.084;2024-02-26T01:49:36;5.90;;;1.20;;
66485;SDS011;53303;47.476;8.084;2024-02-26T01:52:03;5.57;;;1.55;;
66485;SDS011;53303;47.476;8.084;2024-02-26T01:54:29;5.85;;;0.80;;
66485;SDS011;53303;47.476;8.084;2024-02-26T01:56:56;3.97;;;0.90;;
66485;SDS011;53303;47.476;8.084;2024-02-26T01:59:22;4.53;;;1.00;;
66485;SDS011;53303;47.476;8.084;2024-02-26T02:01:49;5.82;;;1.42;;
66485;SDS011;53303;47.476;8.084;2024-02-26T02:04:19;9.95;;;1.20;;
66485;SDS011;53303;47.476;8.084;2024-02-26T02:06:45;4.00;;;0.95;;
66485;SDS011;53303;47.476;8.084;2024-02-26T02:09:11;7.20;;;1.65;;
66485;SDS011;53303;47.476;8.084;2024-02-26T02:11:37;7.03;;;1.60;;
66485;SDS011;53303;47.476;8.084;2024-02-26T02:14:03;5.28;;;1.00;;
66485;SDS011;53303;47.476;8.084;2024-02-26T02:16:28;6.88;;;1.20;;
66485;SDS011;53303;47.476;8.084;2024-02-26T02:18:54;5.25;;;1.25;;
66485;SDS011;53303;47.476;8.084;2024-02-26T02:21:19;5.30;;;1.23;;
66485;SDS011;53303;47.476;8.084;2024-02-26T02:23:44;4.93;;;1.00;;
66485;SDS011;53303;47.476;8.084;2024-02-26T02:26:12;6.40;;;1.10;;
66485;SDS011;53303;47.476;8.084;2024-02-26T02:28:38;6.47;;;1.30;;
66485;SDS011;53303;47.476;8.084;2024-02-26T02:31:07;6.65;;;1.30;;
66485;SDS011;53303;47.476;8.084;2024-02-26T02:33:33;6.85;;;1.27;;
66485;SDS011;53303;47.476;8.084;2024-02-26T02:35:59;6.35;;;1.00;;
66485;SDS011;53303;47.476;8.084;2024-02-26T02:38:24;6.00;;;1.02;;
66485;SDS011;53303;47.476;8.084;2024-02-26T02:40:51;5.80;;;1.10;;
66485;SDS011;53303;47.476;8.084;2024-02-26T02:43:17;4.78;;;1.35;;
66485;SDS011;53303;47.476;8.084;2024-02-26T02:45:42;4.45;;;1.08;;
66485;SDS011;53303;47.476;8.084;2024-02-26T02:48:08;4.30;;;0.93;;
66485;SDS011;53303;47.476;8.084;2024-02-26T02:50:33;5.32;;;0.88;;
66485;SDS011;53303;47.476;8.084;2024-02-26T02:52:58;7.75;;;1.45;;
66485;SDS011;53303;47.476;8.084;2024-02-26T02:55:24;6.65;;;1.20;;
66485;SDS011;53303;47.476;8.084;2024-02-26T02:57:54;6.70;;;1.00;;
66485;SDS011;53303;47.476;8.084;2024-02-26T03:00:20;5.65;;;1.13;;
66485;SDS011;53303;47.476;8.084;2024-02-26T03:02:47;5.35;;;1.27;;
66485;SDS011;53303;47.476;8.084;2024-02-26T03:05:13;5.40;;;0.95;;
66485;SDS011;53303;47.476;8.084;2024-02-26T03:07:42;4.63;;;0.90;;
66485;SDS011;53303;47.476;8.084;2024-02-26T03:10:10;6.57;;;1.20;;
66485;SDS011;53303;47.476;8.084;2024-02-26T03:12:38;7.65;;;1.15;;
66485;SDS011;53303;47.476;8.084;2024-02-26T03:15:04;5.10;;;1.20;;
66485;SDS011;53303;47.476;8.084;2024-02-26T03:17:32;8.68;;;1.15;;
66485;SDS011;53303;47.476;8.084;2024-02-26T03:19:57;4.07;;;0.90;;
66485;SDS011;53303;47.476;8.084;2024-02-26T03:22:23;4.38;;;0.90;;
66485;SDS011;53303;47.476;8.084;2024-02-26T03:24:48;3.75;;;0.80;;
66485;SDS011;53303;47.476;8.084;2024-02-26T03:27:14;2.92;;;0.80;;
66485;SDS011;53303;47.476;8.084;2024-02-26T03:29:39;4.15;;;0.90;;
66485;SDS011;53303;47.476;8.084;2024-02-26T03:32:05;4.72;;;0.88;;
66485;SDS011;53303;47.476;8.084;2024-02-26T03:34:31;5.95;;;1.27;;
66485;SDS011;53303;47.476;8.084;2024-02-26T03:36:59;5.20;;;1.45;;
66485;SDS011;53303;47.476;8.084;2024-02-26T03:39:27;5.07;;;0.93;;
66485;SDS011;53303;47.476;8.084;2024-02-26T03:41:55;4.60;;;0.95;;
66485;SDS011;53303;47.476;8.084;2024-02-26T03:44:20;4.45;;;0.85;;
66485;SDS011;53303;47.476;8.084;2024-02-26T03:46:46;3.90;;;0.93;;
66485;SDS011;53303;47.476;8.084;2024-02-26T03:49:12;5.25;;;1.20;;
66485;SDS011;53303;47.476;8.084;2024-02-26T03:51:38;4.18;;;1.42;;
66485;SDS011;53303;47.476;8.084;2024-02-26T03:54:03;5.32;;;1.23;;
66485;SDS011;53303;47.476;8.084;2024-02-26T03:56:29;5.20;;;0.77;;
66485;SDS011;53303;47.476;8.084;2024-02-26T03:58:55;4.95;;;0.93;;
66485;SDS011;53303;47.476;8.084;2024-02-26T04:01:20;6.22;;;1.10;;
66485;SDS011;53303;47.476;8.084;2024-02-26T04:03:46;3.53;;;0.90;;
66485;SDS011;53303;47.476;8.084;2024-02-26T04:06:11;3.80;;;1.13;;
66485;SDS011;53303;47.476;8.084;2024-02-26T04:08:39;3.95;;;1.10;;
66485;SDS011;53303;47.476;8.084;2024-02-26T04:11:06;4.57;;;1.00;;
66485;SDS011;53303;47.476;8.084;2024-02-26T04:13:35;3.88;;;1.25;;
66485;SDS011;53303;47.476;8.084;2024-02-26T04:16:03;4.22;;;0.90;;
66485;SDS011;53303;47.476;8.084;2024-02-26T04:18:30;3.45;;;0.75;;
66485;SDS011;53303;47.476;8.084;2024-02-26T04:20:56;5.85;;;1.00;;
66485;SDS011;53303;47.476;8.084;2024-02-26T04:23:24;5.55;;;1.10;;
66485;SDS011;53303;47.476;8.084;2024-02-26T04:25:50;6.30;;;1.15;;
66485;SDS011;53303;47.476;8.084;2024-02-26T04:28:15;4.88;;;1.02;;
66485;SDS011;53303;47.476;8.084;2024-02-26T04:30:41;3.85;;;1.10;;
66485;SDS011;53303;47.476;8.084;2024-02-26T04:33:07;5.72;;;0.85;;
66485;SDS011;53303;47.476;8.084;2024-02-26T04:35:32;3.15;;;1.00;;
66485;SDS011;53303;47.476;8.084;2024-02-26T04:37:57;6.03;;;0.95;;
66485;SDS011;53303;47.476;8.084;2024-02-26T04:40:25;4.18;;;0.70;;
66485;SDS011;53303;47.476;8.084;2024-02-26T04:42:53;6.18;;;1.13;;
66485;SDS011;53303;47.476;8.084;2024-02-26T04:45:20;7.63;;;1.20;;
66485;SDS011;53303;47.476;8.084;2024-02-26T04:47:48;6.85;;;1.23;;
66485;SDS011;53303;47.476;8.084;2024-02-26T04:50:14;3.28;;;0.93;;
66485;SDS011;53303;47.476;8.084;2024-02-26T04:52:42;4.30;;;1.10;;
66485;SDS011;53303;47.476;8.084;2024-02-26T04:55:08;6.03;;;0.90;;
66485;SDS011;53303;47.476;8.084;2024-02-26T04:57:33;3.85;;;1.10;;
66485;SDS011;53303;47.476;8.084;2024-02-26T04:59:58;7.60;;;1.48;;
66485;SDS011;53303;47.476;8.084;2024-02-26T05:02:24;9.90;;;1.50;;
66485;SDS011;53303;47.476;8.084;2024-02-26T05:04:49;7.45;;;1.45;;
66485;SDS011;53303;47.476;8.084;2024-02-26T05:07:17;7.65;;;1.65;;
66485;SDS011;53303;47.476;8.084;2024-02-26T05:09:43;6.25;;;1.00;;
66485;SDS011;53303;47.476;8.084;2024-02-26T05:12:11;11.95;;;1.60;;
66485;SDS011;53303;47.476;8.084;2024-02-26T05:14:36;9.85;;;1.20;;
66485;SDS011;53303;47.476;8.084;2024-02-26T05:17:04;8.07;;;1.08;;
66485;SDS011;53303;47.476;8.084;2024-02-26T05:19:31;8.90;;;1.23;;
66485;SDS011;53303;47.476;8.084;2024-02-26T05:21:56;5.18;;;1.10;;
66485;SDS011;53303;47.476;8.084;2024-02-26T05:24:22;6.50;;;1.13;;
66485;SDS011;53303;47.476;8.084;2024-02-26T05:26:47;5.90;;;1.00;;
66485;SDS011;53303;47.476;8.084;2024-02-26T05:29:13;12.43;;;1.35;;
66485;SDS011;53303;47.476;8.084;2024-02-26T05:31:38;3.72;;;0.80;;
66485;SDS011;53303;47.476;8.084;2024-02-26T05:34:06;3.03;;;0.80;;
66485;SDS011;53303;47.476;8.084;2024-02-26T05:36:31;7.43;;;1.10;;
66485;SDS011;53303;47.476;8.084;2024-02-26T05:38:59;7.40;;;1.15;;
66485;SDS011;53303;47.476;8.084;2024-02-26T05:41:27;5.75;;;1.38;;
66485;SDS011;53303;47.476;8.084;2024-02-26T05:43:52;5.25;;;1.08;;
66485;SDS011;53303;47.476;8.084;2024-02-26T05:46:19;7.75;;;1.10;;
66485;SDS011;53303;47.476;8.084;2024-02-26T05:48:46;3.25;;;0.70;;
66485;SDS011;53303;47.476;8.084;2024-02-26T05:51:13;5.78;;;1.00;;
66485;SDS011;53303;47.476;8.084;2024-02-26T05:53:38;6.93;;;1.10;;
66485;SDS011;53303;47.476;8.084;2024-02-26T05:56:04;3.03;;;0.88;;
66485;SDS011;53303;47.476;8.084;2024-02-26T05:58:29;6.78;;;1.05;;
66485;SDS011;53303;47.476;8.084;2024-02-26T06:00:59;4.30;;;0.80;;
66485;SDS011;53303;47.476;8.084;2024-02-26T06:03:25;4.72;;;0.95;;
66485;SDS011;53303;47.476;8.084;2024-02-26T06:05:51;5.90;;;0.75;;
66485;SDS011;53303;47.476;8.084;2024-02-26T06:08:16;4.40;;;1.00;;
66485;SDS011;53303;47.476;8.084;2024-02-26T06:10:42;4.47;;;0.82;;
66485;SDS011;53303;47.476;8.084;2024-02-26T06:13:07;3.05;;;1.05;;
66485;SDS011;53303;47.476;8.084;2024-02-26T06:15:33;3.83;;;0.90;;
66485;SDS011;53303;47.476;8.084;2024-02-26T06:17:58;4.13;;;0.98;;
66485;SDS011;53303;47.476;8.084;2024-02-26T06:20:23;6.78;;;1.67;;
66485;SDS011;53303;47.476;8.084;2024-02-26T06:22:51;7.38;;;1.55;;
66485;SDS011;53303;47.476;8.084;2024-02-26T06:25:19;6.38;;;1.25;;
66485;SDS011;53303;47.476;8.084;2024-02-26T06:27:44;4.72;;;1.17;;
66485;SDS011;53303;47.476;8.084;2024-02-26T06:30:12;5.88;;;0.98;;
66485;SDS011;53303;47.476;8.084;2024-02-26T06:32:38;6.25;;;1.17;;
66485;SDS011;53303;47.476;8.084;2024-02-26T06:35:06;14.73;;;1.58;;
66485;SDS011;53303;47.476;8.084;2024-02-26T06:37:33;7.32;;;1.40;;
66485;SDS011;53303;47.476;8.084;2024-02-26T06:40:00;6.70;;;1.13;;
66485;SDS011;53303;47.476;8.084;2024-02-26T06:42:29;7.47;;;1.25;;
66485;SDS011;53303;47.476;8.084;2024-02-26T06:44:57;6.47;;;1.13;;
66485;SDS011;53303;47.476;8.084;2024-02-26T06:49:51;9.73;;;1.33;;
66485;SDS011;53303;47.476;8.084;2024-02-26T06:52:23;10.23;;;1.15;;
66485;SDS011;53303;47.476;8.084;2024-02-26T06:54:50;5.80;;;1.10;;
66485;SDS011;53303;47.476;8.084;2024-02-26T06:57:17;12.48;;;1.13;;
66485;SDS011;53303;47.476;8.084;2024-02-26T06:59:44;8.70;;;1.20;;
66485;SDS011;53303;47.476;8.084;2024-02-26T07:02:12;10.02;;;1.17;;
66485;SDS011;53303;47.476;8.084;2024-02-26T07:04:37;7.22;;;1.27;;
66485;SDS011;53303;47.476;8.084;2024-02-26T07:07:03;5.90;;;0.93;;
66485;SDS011;53303;47.476;8.084;2024-02-26T07:09:28;9.13;;;1.25;;
66485;SDS011;53303;47.476;8.084;2024-02-26T07:11:56;7.45;;;1.05;;
66485;SDS011;53303;47.476;8.084;2024-02-26T07:14:24;6.13;;;1.00;;
66485;SDS011;53303;47.476;8.084;2024-02-26T07:16:52;5.63;;;1.08;;
66485;SDS011;53303;47.476;8.084;2024-02-26T07:19:17;7.40;;;1.00;;
66485;SDS011;53303;47.476;8.084;2024-02-26T07:21:45;7.78;;;1.23;;
66485;SDS011;53303;47.476;8.084;2024-02-26T07:24:11;7.07;;;1.10;;
66485;SDS011;53303;47.476;8.084;2024-02-26T07:26:36;6.43;;;1.27;;
66485;SDS011;53303;47.476;8.084;2024-02-26T07:29:01;4.68;;;1.13;;
66485;SDS011;53303;47.476;8.084;2024-02-26T07:31:27;12.63;;;1.30;;
66485;SDS011;53303;47.476;8.084;2024-02-26T07:33:55;6.25;;;1.23;;
66485;SDS011;53303;47.476;8.084;2024-02-26T07:36:20;8.10;;;1.17;;
66485;SDS011;53303;47.476;8.084;2024-02-26T07:38:45;7.63;;;1.20;;
66485;SDS011;53303;47.476;8.084;2024-02-26T07:41:11;3.80;;;0.73;;
66485;SDS011;53303;47.476;8.084;2024-02-26T07:43:37;6.35;;;1.00;;
66485;SDS011;53303;47.476;8.084;2024-02-26T07:46:02;7.45;;;1.10;;
66485;SDS011;53303;47.476;8.084;2024-02-26T07:48:30;3.85;;;0.80;;
66485;SDS011;53303;47.476;8.084;2024-02-26T07:50:57;9.82;;;1.08;;
66485;SDS011;53303;47.476;8.084;2024-02-26T07:53:25;5.82;;;0.98;;
66485;SDS011;53303;47.476;8.084;2024-02-26T07:55:51;4.60;;;0.80;;
66485;SDS011;53303;47.476;8.084;2024-02-26T07:58:16;7.18;;;0.90;;
66485;SDS011;53303;47.476;8.084;2024-02-26T08:00:41;4.80;;;1.05;;
66485;SDS011;53303;47.476;8.084;2024-02-26T08:03:07;6.55;;;1.38;;
66485;SDS011;53303;47.476;8.084;2024-02-26T08:05:32;6.32;;;1.38;;
66485;SDS011;53303;47.476;8.084;2024-02-26T08:08:05;3.97;;;1.00;;
66485;SDS011;53303;47.476;8.084;2024-02-26T08:10:31;5.68;;;1.10;;
66485;SDS011;53303;47.476;8.084;2024-02-26T08:12:56;6.60;;;1.00;;
66485;SDS011;53303;47.476;8.084;2024-02-26T08:15:32;6.13;;;0.77;;
66485;SDS011;53303;47.476;8.084;2024-02-26T08:17:59;5.50;;;0.90;;
66485;SDS011;53303;47.476;8.084;2024-02-26T08:20:30;4.00;;;1.00;;
66485;SDS011;53303;47.476;8.084;2024-02-26T08:22:57;7.05;;;1.50;;
66485;SDS011;53303;47.476;8.084;2024-02-26T08:25:23;2.75;;;0.77;;
66485;SDS011;53303;47.476;8.084;2024-02-26T08:27:51;5.10;;;1.00;;
66485;SDS011;53303;47.476;8.084;2024-02-26T08:30:17;6.70;;;1.10;;
66485;SDS011;53303;47.476;8.084;2024-02-26T08:32:45;5.55;;;1.10;;
66485;SDS011;53303;47.476;8.084;2024-02-26T08:35:12;4.53;;;0.70;;
66485;SDS011;53303;47.476;8.084;2024-02-26T08:37:40;4.07;;;0.80;;
66485;SDS011;53303;47.476;8.084;2024-02-26T08:40:06;7.18;;;1.00;;
66485;SDS011;53303;47.476;8.084;2024-02-26T08:42:32;3.92;;;1.20;;
66485;SDS011;53303;47.476;8.084;2024-02-26T08:44:57;5.45;;;1.17;;
66485;SDS011;53303;47.476;8.084;2024-02-26T08:47:27;2.45;;;0.60;;
66485;SDS011;53303;47.476;8.084;2024-02-26T08:49:53;4.47;;;0.90;;
66485;SDS011;53303;47.476;8.084;2024-02-26T08:52:18;3.65;;;0.90;;
66485;SDS011;53303;47.476;8.084;2024-02-26T08:54:46;4.72;;;0.90;;
66485;SDS011;53303;47.476;8.084;2024-02-26T08:57:12;3.67;;;0.90;;
66485;SDS011;53303;47.476;8.084;2024-02-26T08:59:37;6.32;;;0.85;;
66485;SDS011;53303;47.476;8.084;2024-02-26T09:02:03;4.90;;;0.80;;
66485;SDS011;53303;47.476;8.084;2024-02-26T09:04:28;3.75;;;1.02;;
66485;SDS011;53303;47.476;8.084;2024-02-26T09:06:56;8.00;;;1.10;;
66485;SDS011;53303;47.476;8.084;2024-02-26T09:09:22;4.60;;;0.90;;
66485;SDS011;53303;47.476;8.084;2024-02-26T09:11:51;2.72;;;0.80;;
66485;SDS011;53303;47.476;8.084;2024-02-26T09:14:17;6.82;;;1.00;;
66485;SDS011;53303;47.476;8.084;2024-02-26T09:16:43;3.35;;;0.90;;
66485;SDS011;53303;47.476;8.084;2024-02-26T09:19:09;4.43;;;0.95;;
66485;SDS011;53303;47.476;8.084;2024-02-26T09:21:37;4.13;;;0.70;;
66485;SDS011;53303;47.476;8.084;2024-02-26T09:24:07;3.33;;;0.80;;
66485;SDS011;53303;47.476;8.084;2024-02-26T09:26:32;4.47;;;1.05;;
66485;SDS011;53303;47.476;8.084;2024-02-26T09:29:00;2.10;;;0.80;;
66485;SDS011;53303;47.476;8.084;2024-02-26T09:31:26;1.90;;;0.50;;
66485;SDS011;53303;47.476;8.084;2024-02-26T09:33:53;3.00;;;0.50;;
66485;SDS011;53303;47.476;8.084;2024-02-26T09:36:19;3.03;;;0.88;;
66485;SDS011;53303;47.476;8.084;2024-02-26T09:38:44;1.70;;;0.90;;
66485;SDS011;53303;47.476;8.084;2024-02-26T09:41:13;1.08;;;0.40;;
66485;SDS011;53303;47.476;8.084;2024-02-26T09:43:43;1.80;;;0.70;;
66485;SDS011;53303;47.476;8.084;2024-02-26T09:46:11;3.50;;;0.60;;
66485;SDS011;53303;47.476;8.084;2024-02-26T09:48:37;2.00;;;0.80;;
66485;SDS011;53303;47.476;8.084;2024-02-26T09:51:03;3.80;;;1.00;;
66485;SDS011;53303;47.476;8.084;2024-02-26T09:53:31;2.42;;;0.80;;
66485;SDS011;53303;47.476;8.084;2024-02-26T09:55:57;3.45;;;0.70;;
66485;SDS011;53303;47.476;8.084;2024-02-26T09:58:28;5.63;;;0.80;;
66485;SDS011;53303;47.476;8.084;2024-02-26T10:00:57;4.95;;;0.68;;
66485;SDS011;53303;47.476;8.084;2024-02-26T10:03:34;2.63;;;0.93;;
66485;SDS011;53303;47.476;8.084;2024-02-26T10:06:05;4.13;;;0.80;;
66485;SDS011;53303;47.476;8.084;2024-02-26T10:08:32;2.42;;;0.60;;
66485;SDS011;53303;47.476;8.084;2024-02-26T10:10:58;3.00;;;0.82;;
66485;SDS011;53303;47.476;8.084;2024-02-26T10:13:24;4.70;;;0.98;;
66485;SDS011;53303;47.476;8.084;2024-02-26T10:15:50;2.35;;;0.88;;
66485;SDS011;53303;47.476;8.084;2024-02-26T10:18:16;3.75;;;0.70;;
66485;SDS011;53303;47.476;8.084;2024-02-26T10:20:41;6.80;;;0.80;;
66485;SDS011;53303;47.476;8.084;2024-02-26T10:23:06;2.45;;;0.60;;
66485;SDS011;53303;47.476;8.084;2024-02-26T10:25:32;2.88;;;0.80;;
66485;SDS011;53303;47.476;8.084;2024-02-26T10:28:00;4.95;;;0.80;;
66485;SDS011;53303;47.476;8.084;2024-02-26T10:30:29;4.65;;;0.75;;
66485;SDS011;53303;47.476;8.084;2024-02-26T10:32:57;2.72;;;0.60;;
66485;SDS011;53303;47.476;8.084;2024-02-26T10:35:24;3.72;;;0.73;;
66485;SDS011;53303;47.476;8.084;2024-02-26T10:37:49;3.33;;;0.85;;
66485;SDS011;53303;47.476;8.084;2024-02-26T10:40:15;4.82;;;1.00;;
66485;SDS011;53303;47.476;8.084;2024-02-26T10:42:42;3.58;;;0.65;;
66485;SDS011;53303;47.476;8.084;2024-02-26T10:45:08;3.05;;;0.90;;
66485;SDS011;53303;47.476;8.084;2024-02-26T10:47:38;3.20;;;0.93;;
66485;SDS011;53303;47.476;8.084;2024-02-26T10:50:05;3.58;;;0.80;;
66485;SDS011;53303;47.476;8.084;2024-02-26T10:52:35;2.42;;;0.68;;
66485;SDS011;53303;47.476;8.084;2024-02-26T10:55:01;4.43;;;0.82;;
66485;SDS011;53303;47.476;8.084;2024-02-26T10:57:33;2.50;;;0.95;;
66485;SDS011;53303;47.476;8.084;2024-02-26T11:00:02;2.80;;;0.80;;
66485;SDS011;53303;47.476;8.084;2024-02-26T11:02:30;3.17;;;0.80;;
66485;SDS011;53303;47.476;8.084;2024-02-26T11:05:00;2.10;;;0.63;;
66485;SDS011;53303;47.476;8.084;2024-02-26T11:07:29;3.28;;;0.70;;
66485;SDS011;53303;47.476;8.084;2024-02-26T11:09:56;2.78;;;0.50;;
66485;SDS011;53303;47.476;8.084;2024-02-26T11:12:24;2.75;;;0.47;;
66485;SDS011;53303;47.476;8.084;2024-02-26T11:14:55;2.25;;;0.50;;
66485;SDS011;53303;47.476;8.084;2024-02-26T11:17:23;1.60;;;0.77;;
66485;SDS011;53303;47.476;8.084;2024-02-26T11:19:53;1.45;;;0.38;;
66485;SDS011;53303;47.476;8.084;2024-02-26T11:22:20;1.73;;;0.85;;
66485;SDS011;53303;47.476;8.084;2024-02-26T11:24:47;1.90;;;0.50;;
66485;SDS011;53303;47.476;8.084;2024-02-26T11:27:13;3.63;;;0.70;;
66485;SDS011;53303;47.476;8.084;2024-02-26T11:29:43;3.10;;;0.80;;
66485;SDS011;53303;47.476;8.084;2024-02-26T11:32:12;2.33;;;0.80;;
66485;SDS011;53303;47.476;8.084;2024-02-26T11:34:38;3.95;;;0.80;;
66485;SDS011;53303;47.476;8.084;2024-02-26T11:37:10;2.10;;;0.90;;
66485;SDS011;53303;47.476;8.084;2024-02-26T11:39:37;2.92;;;0.70;;
66485;SDS011;53303;47.476;8.084;2024-02-26T11:42:05;3.22;;;0.80;;
66485;SDS011;53303;47.476;8.084;2024-02-26T11:44:31;1.52;;;0.40;;
66485;SDS011;53303;47.476;8.084;2024-02-26T11:46:57;2.85;;;0.60;;
66485;SDS011;53303;47.476;8.084;2024-02-26T11:51:54;4.22;;;0.50;;
66485;SDS011;53303;47.476;8.084;2024-02-26T11:57:38;3.28;;;0.90;;
66485;SDS011;53303;47.476;8.084;2024-02-26T12:00:16;3.90;;;0.75;;
66485;SDS011;53303;47.476;8.084;2024-02-26T12:05:23;3.25;;;0.70;;
66485;SDS011;53303;47.476;8.084;2024-02-26T12:07:55;4.22;;;0.50;;
66485;SDS011;53303;47.476;8.084;2024-02-26T12:10:26;3.38;;;0.65;;
66485;SDS011;53303;47.476;8.084;2024-02-26T12:15:33;3.38;;;0.80;;
66485;SDS011;53303;47.476;8.084;2024-02-26T12:18:04;4.15;;;0.85;;
66485;SDS011;53303;47.476;8.084;2024-02-26T12:20:31;2.22;;;0.70;;
66485;SDS011;53303;47.476;8.084;2024-02-26T12:22:57;1.75;;;0.50;;
66485;SDS011;53303;47.476;8.084;2024-02-26T12:25:26;2.80;;;0.60;;
66485;SDS011;53303;47.476;8.084;2024-02-26T12:27:54;1.23;;;0.40;;
66485;SDS011;53303;47.476;8.084;2024-02-26T12:30:20;2.75;;;0.60;;
66485;SDS011;53303;47.476;8.084;2024-02-26T12:32:50;1.63;;;0.50;;
66485;SDS011;53303;47.476;8.084;2024-02-26T12:35:22;3.85;;;0.70;;
66485;SDS011;53303;47.476;8.084;2024-02-26T12:37:50;2.15;;;0.85;;
66485;SDS011;53303;47.476;8.084;2024-02-26T12:40:18;2.15;;;0.60;;
66485;SDS011;53303;47.476;8.084;2024-02-26T12:42:44;1.45;;;0.50;;
66485;SDS011;53303;47.476;8.084;2024-02-26T12:45:11;4.35;;;0.57;;
66485;SDS011;53303;47.476;8.084;2024-02-26T12:47:38;2.75;;;0.82;;
66485;SDS011;53303;47.476;8.084;2024-02-26T12:50:04;2.40;;;0.60;;
66485;SDS011;53303;47.476;8.084;2024-02-26T12:52:34;3.05;;;0.63;;
66485;SDS011;53303;47.476;8.084;2024-02-26T12:55:01;2.55;;;0.50;;
66485;SDS011;53303;47.476;8.084;2024-02-26T12:57:31;2.75;;;0.60;;
66485;SDS011;53303;47.476;8.084;2024-02-26T12:59:58;1.13;;;0.40;;
66485;SDS011;53303;47.476;8.084;2024-02-26T13:02:25;1.00;;;0.55;;
66485;SDS011;53303;47.476;8.084;2024-02-26T13:04:51;1.38;;;0.63;;
66485;SDS011;53303;47.476;8.084;2024-02-26T13:07:18;1.73;;;0.40;;
66485;SDS011;53303;47.476;8.084;2024-02-26T13:09:44;1.13;;;0.43;;
66485;SDS011;53303;47.476;8.084;2024-02-26T13:12:11;1.20;;;0.50;;
66485;SDS011;53303;47.476;8.084;2024-02-26T13:14:37;2.65;;;0.60;;
66485;SDS011;53303;47.476;8.084;2024-02-26T13:17:05;2.53;;;0.70;;
66485;SDS011;53303;47.476;8.084;2024-02-26T13:19:33;0.85;;;0.65;;
66485;SDS011;53303;47.476;8.084;2024-02-26T13:22:05;2.33;;;0.70;;
66485;SDS011;53303;47.476;8.084;2024-02-26T13:24:34;1.38;;;0.50;;
66485;SDS011;53303;47.476;8.084;2024-02-26T13:27:00;3.33;;;0.65;;
66485;SDS011;53303;47.476;8.084;2024-02-26T13:29:28;3.13;;;0.50;;
66485;SDS011;53303;47.476;8.084;2024-02-26T13:31:59;3.13;;;0.57;;
66485;SDS011;53303;47.476;8.084;2024-02-26T13:34:26;3.20;;;0.60;;
66485;SDS011;53303;47.476;8.084;2024-02-26T13:36:52;1.80;;;0.60;;
66485;SDS011;53303;47.476;8.084;2024-02-26T13:39:25;1.95;;;0.50;;
66485;SDS011;53303;47.476;8.084;2024-02-26T13:41:55;3.45;;;0.70;;
66485;SDS011;53303;47.476;8.084;2024-02-26T13:44:22;1.13;;;0.60;;
66485;SDS011;53303;47.476;8.084;2024-02-26T13:46:48;3.03;;;0.60;;
66485;SDS011;53303;47.476;8.084;2024-02-26T13:49:14;1.38;;;0.90;;
66485;SDS011;53303;47.476;8.084;2024-02-26T13:51:39;2.90;;;0.50;;
66485;SDS011;53303;47.476;8.084;2024-02-26T13:54:08;3.85;;;1.10;;
66485;SDS011;53303;47.476;8.084;2024-02-26T13:56:35;4.57;;;0.98;;
66485;SDS011;53303;47.476;8.084;2024-02-26T13:59:01;3.45;;;0.80;;
66485;SDS011;53303;47.476;8.084;2024-02-26T14:01:26;5.70;;;0.80;;
66485;SDS011;53303;47.476;8.084;2024-02-26T14:03:53;4.10;;;0.60;;
66485;SDS011;53303;47.476;8.084;2024-02-26T14:06:22;2.53;;;0.50;;
66485;SDS011;53303;47.476;8.084;2024-02-26T14:08:48;7.90;;;0.80;;
66485;SDS011;53303;47.476;8.084;2024-02-26T14:11:13;4.13;;;0.98;;
66485;SDS011;53303;47.476;8.084;2024-02-26T14:13:41;4.50;;;0.82;;
66485;SDS011;53303;47.476;8.084;2024-02-26T14:16:07;3.22;;;0.70;;
66485;SDS011;53303;47.476;8.084;2024-02-26T14:18:32;5.13;;;0.90;;
66485;SDS011;53303;47.476;8.084;2024-02-26T14:20:57;3.33;;;0.80;;
66485;SDS011;53303;47.476;8.084;2024-02-26T14:23:23;3.85;;;0.50;;
66485;SDS011;53303;47.476;8.084;2024-02-26T14:25:48;3.47;;;0.80;;
66485;SDS011;53303;47.476;8.084;2024-02-26T14:28:16;4.20;;;0.90;;
66485;SDS011;53303;47.476;8.084;2024-02-26T14:30:41;5.75;;;0.80;;
66485;SDS011;53303;47.476;8.084;2024-02-26T14:33:06;6.05;;;0.90;;
66485;SDS011;53303;47.476;8.084;2024-02-26T14:35:34;3.38;;;0.52;;
66485;SDS011;53303;47.476;8.084;2024-02-26T14:38:00;5.03;;;0.80;;
66485;SDS011;53303;47.476;8.084;2024-02-26T14:40:26;2.00;;;0.63;;
66485;SDS011;53303;47.476;8.084;2024-02-26T14:42:52;7.18;;;1.05;;
66485;SDS011;53303;47.476;8.084;2024-02-26T14:45:22;7.78;;;1.20;;
66485;SDS011;53303;47.476;8.084;2024-02-26T14:47:47;6.68;;;0.80;;
66485;SDS011;53303;47.476;8.084;2024-02-26T14:50:13;6.47;;;0.75;;
66485;SDS011;53303;47.476;8.084;2024-02-26T14:52:40;3.80;;;0.75;;
66485;SDS011;53303;47.476;8.084;2024-02-26T14:55:06;6.68;;;1.25;;
66485;SDS011;53303;47.476;8.084;2024-02-26T14:57:32;5.53;;;1.17;;
66485;SDS011;53303;47.476;8.084;2024-02-26T14:59:57;8.52;;;0.98;;